createdAt,value
2016-11-14T00:00:04.009Z,99.99
2016-11-14T00:01:14.423Z,99.99
2016-11-14T00:02:24.836Z,99.99
2016-11-14T00:03:35.242Z,99.99
2016-11-14T00:04:46.341Z,99.99
2016-11-14T00:05:56.756Z,99.99
2016-11-14T00:07:21.715Z,99.99
2016-11-14T00:09:57.086Z,99.99
2016-11-14T00:11:36.598Z,99.99
2016-11-14T00:12:47.006Z,99.99
2016-11-14T00:13:57.613Z,99.99
2016-11-14T00:15:22.572Z,99.99
2016-11-14T00:16:32.986Z,99.99
2016-11-14T00:17:43.395Z,99.99
2016-11-14T00:19:08.555Z,99.99
2016-11-14T00:20:33.515Z,99.99
2016-11-14T00:21:43.921Z,99.99
2016-11-14T00:22:54.328Z,99.99
2016-11-14T00:24:04.739Z,99.99
2016-11-14T00:25:15.250Z,99.99
2016-11-14T00:26:25.664Z,99.99
2016-11-14T00:27:36.072Z,99.99
2016-11-14T00:28:46.483Z,99.99
2016-11-14T00:29:57.091Z,99.99
2016-11-14T00:31:07.500Z,99.99
2016-11-14T00:32:17.911Z,99.99
2016-11-14T00:33:28.351Z,99.99
2016-11-14T00:34:38.766Z,99.99
2016-11-14T00:35:49.375Z,99.99
2016-11-14T00:37:00.292Z,99.99
2016-11-14T00:38:10.706Z,99.99
2016-11-14T00:39:21.162Z,99.99
2016-11-14T00:40:31.573Z,99.99
2016-11-14T00:41:42.123Z,99.99
2016-11-14T00:43:07.084Z,99.99
2016-11-14T00:44:17.494Z,99.99
2016-11-14T00:45:27.899Z,99.99
2016-11-14T00:46:38.310Z,99.99
2016-11-14T00:47:48.756Z,99.99
2016-11-14T00:48:59.170Z,99.99
2016-11-14T00:50:09.579Z,99.99
2016-11-14T00:51:20.019Z,99.99
2016-11-14T00:52:30.441Z,99.99
2016-11-14T00:53:40.856Z,99.99
2016-11-14T00:54:51.266Z,99.99
2016-11-14T00:56:01.675Z,99.99
2016-11-14T00:57:12.584Z,99.99
2016-11-14T00:58:22.998Z,99.99
2016-11-14T00:59:47.959Z,99.99
2016-11-14T01:00:59.235Z,99.99
2016-11-14T01:02:09.654Z,99.99
2016-11-14T01:03:20.070Z,99.99
2016-11-14T01:04:30.683Z,99.99
2016-11-14T01:05:41.091Z,99.99
2016-11-14T01:06:51.502Z,99.99
2016-11-14T01:08:01.919Z,99.99
2016-11-14T01:09:12.528Z,99.99
2016-11-14T01:10:22.936Z,99.99
2016-11-14T01:11:33.350Z,99.99
2016-11-14T01:14:23.308Z,99.99
2016-11-14T01:15:33.721Z,99.99
2016-11-14T01:16:44.130Z,99.99
2016-11-14T01:17:54.547Z,99.99
2016-11-14T01:19:04.965Z,99.99
2016-11-14T01:20:15.376Z,99.99
2016-11-14T01:21:25.793Z,99.99
2016-11-14T01:22:36.212Z,99.99
2016-11-14T01:23:46.626Z,99.99
2016-11-14T01:24:57.035Z,99.99
2016-11-14T01:26:07.651Z,99.99
2016-11-14T01:27:18.063Z,99.99
2016-11-14T01:28:28.501Z,99.99
2016-11-14T01:29:38.948Z,99.99
2016-11-14T01:30:49.361Z,99.99
2016-11-14T01:31:59.970Z,99.99
2016-11-14T01:33:10.383Z,99.99
2016-11-14T01:34:20.828Z,99.99
2016-11-14T01:35:31.239Z,99.99
2016-11-14T01:36:41.658Z,99.99
2016-11-14T01:37:52.275Z,99.99
2016-11-14T01:39:02.687Z,99.99
2016-11-14T01:40:27.654Z,99.99
2016-11-14T01:41:38.067Z,99.99
2016-11-14T01:42:48.484Z,99.99
2016-11-14T01:43:58.893Z,99.99
2016-11-14T01:45:09.303Z,99.99
2016-11-14T01:46:19.740Z,99.99
2016-11-14T01:47:30.151Z,99.99
2016-11-14T01:48:40.765Z,99.99
2016-11-14T01:49:51.176Z,99.99
2016-11-14T01:51:01.589Z,99.99
2016-11-14T01:52:12.005Z,99.99
2016-11-14T01:53:22.417Z,99.99
2016-11-14T01:54:33.057Z,99.99
2016-11-14T01:55:43.469Z,99.99
2016-11-14T01:56:53.886Z,99.99
2016-11-14T01:58:04.303Z,99.99
2016-11-14T01:59:14.746Z,99.99
2016-11-14T02:00:25.357Z,99.99
2016-11-14T02:01:35.765Z,99.99
2016-11-14T02:02:46.178Z,99.99
2016-11-14T02:03:56.593Z,99.99
2016-11-14T02:05:07.004Z,99.99
2016-11-14T02:06:17.617Z,99.99
2016-11-14T02:07:28.517Z,99.99
2016-11-14T02:08:38.939Z,99.99
2016-11-14T02:09:49.352Z,99.99
2016-11-14T02:10:59.790Z,99.99
2016-11-14T02:12:10.439Z,99.99
2016-11-14T02:13:20.846Z,99.99
2016-11-14T02:14:31.261Z,99.99
2016-11-14T02:15:41.670Z,99.99
2016-11-14T02:16:52.082Z,99.99
2016-11-14T02:18:17.040Z,99.99
2016-11-14T02:19:27.446Z,99.99
2016-11-14T02:20:52.404Z,99.99
2016-11-14T02:22:02.812Z,99.99
2016-11-14T02:23:13.227Z,99.99
2016-11-14T02:24:23.743Z,99.99
2016-11-14T02:25:34.189Z,99.99
2016-11-14T02:26:44.603Z,99.99
2016-11-14T02:27:55.015Z,99.99
2016-11-14T02:29:20.179Z,99.99
2016-11-14T02:30:30.584Z,99.99
2016-11-14T02:31:41.031Z,99.99
2016-11-14T02:32:51.445Z,99.99
2016-11-14T02:34:01.851Z,99.99
2016-11-14T02:35:12.300Z,99.99
2016-11-14T02:36:22.830Z,99.99
2016-11-14T02:37:33.359Z,99.99
2016-11-14T02:38:43.888Z,99.99
2016-11-14T02:39:54.450Z,99.99
2016-11-14T02:41:05.084Z,99.99
2016-11-14T02:42:15.612Z,99.99
2016-11-14T02:43:26.144Z,99.99
2016-11-14T02:44:36.674Z,99.99
2016-11-14T02:45:47.202Z,99.99
2016-11-14T02:48:37.319Z,99.99
2016-11-14T02:49:47.847Z,99.99
2016-11-14T02:50:58.374Z,99.99
2016-11-14T02:52:09.105Z,99.99
2016-11-14T02:53:19.674Z,99.99
2016-11-14T02:54:30.205Z,99.99
2016-11-14T02:55:40.696Z,99.99
2016-11-14T02:56:51.166Z,99.99
2016-11-14T02:58:01.606Z,99.99
2016-11-14T02:59:12.049Z,99.99
2016-11-14T03:00:22.484Z,99.99
2016-11-14T03:01:32.921Z,99.99
2016-11-14T03:02:43.362Z,99.99
2016-11-14T03:03:53.902Z,99.99
2016-11-14T03:05:04.335Z,99.99
2016-11-14T03:06:14.809Z,99.99
2016-11-14T03:07:25.248Z,99.99
2016-11-14T03:08:35.647Z,99.99
2016-11-14T03:09:46.064Z,99.99
2016-11-14T03:10:56.396Z,99.99
2016-11-14T03:12:35.854Z,99.99
2016-11-14T03:13:46.652Z,99.99
2016-11-14T03:14:57.072Z,99.99
2016-11-14T03:16:07.395Z,99.99
2016-11-14T03:17:17.714Z,99.99
2016-11-14T03:18:28.034Z,99.99
2016-11-14T03:19:38.350Z,99.99
2016-11-14T03:20:48.666Z,99.99
2016-11-14T03:21:58.987Z,99.99
2016-11-14T03:23:09.305Z,99.99
2016-11-14T03:24:19.628Z,99.99
2016-11-14T03:25:29.955Z,99.99
2016-11-14T03:26:40.303Z,99.99
2016-11-14T03:27:50.620Z,99.99
2016-11-14T03:29:00.946Z,99.99
2016-11-14T03:30:11.267Z,99.99
2016-11-14T03:31:21.586Z,99.99
2016-11-14T03:32:32.007Z,99.99
2016-11-14T03:33:42.326Z,99.99
2016-11-14T03:34:52.647Z,99.99
2016-11-14T03:36:02.968Z,99.99
2016-11-14T03:37:13.285Z,99.99
2016-11-14T03:38:23.808Z,99.99
2016-11-14T03:39:34.162Z,99.99
2016-11-14T03:40:44.482Z,99.99
2016-11-14T03:41:54.833Z,99.99
2016-11-14T03:43:05.299Z,99.99
2016-11-14T03:44:15.836Z,99.99
2016-11-14T03:45:26.273Z,99.99
2016-11-14T03:46:36.714Z,99.99
2016-11-14T03:47:47.164Z,99.99
2016-11-14T03:48:58.090Z,99.99
2016-11-14T03:50:23.272Z,99.99
2016-11-14T03:51:33.706Z,99.99
2016-11-14T03:52:44.171Z,99.99
2016-11-14T03:53:54.642Z,99.99
2016-11-14T03:55:05.081Z,99.99
2016-11-14T03:56:15.518Z,99.99
2016-11-14T03:57:25.955Z,99.99
2016-11-14T03:58:36.393Z,99.99
2016-11-14T03:59:46.827Z,99.99
2016-11-14T04:01:11.806Z,99.99
2016-11-14T04:02:22.250Z,99.99
2016-11-14T04:03:32.689Z,99.99
2016-11-14T04:04:43.129Z,99.99
2016-11-14T04:05:53.668Z,99.99
2016-11-14T04:07:04.105Z,99.99
2016-11-14T04:08:14.575Z,99.99
2016-11-14T04:09:25.009Z,99.99
2016-11-14T04:10:35.446Z,99.99
2016-11-14T04:11:45.980Z,99.99
2016-11-14T04:12:56.418Z,99.99
2016-11-14T04:14:06.853Z,99.99
2016-11-14T04:15:17.289Z,99.99
2016-11-14T04:16:27.765Z,99.99
2016-11-14T04:17:38.301Z,99.99
2016-11-14T04:18:48.738Z,99.99
2016-11-14T04:19:59.178Z,99.99
2016-11-14T04:21:09.617Z,99.99
2016-11-14T04:22:20.049Z,99.99
2016-11-14T04:23:30.487Z,99.99
2016-11-14T04:24:40.923Z,99.99
2016-11-14T04:25:51.361Z,99.99
2016-11-14T04:27:01.799Z,99.99
2016-11-14T04:28:12.236Z,99.99
2016-11-14T04:29:22.876Z,99.99
2016-11-14T04:30:33.312Z,99.99
2016-11-14T04:31:43.751Z,99.99
2016-11-14T04:32:54.225Z,99.99
2016-11-14T04:34:04.660Z,99.99
2016-11-14T04:35:15.193Z,99.99
2016-11-14T04:36:25.631Z,99.99
2016-11-14T04:37:36.071Z,99.99
2016-11-14T04:38:46.510Z,99.99
2016-11-14T04:39:56.944Z,99.99
2016-11-14T04:41:21.925Z,99.99
2016-11-14T04:42:32.407Z,99.99
2016-11-14T04:43:42.842Z,99.99
2016-11-14T04:44:53.281Z,99.99
2016-11-14T04:46:04.408Z,99.99
2016-11-14T04:47:14.847Z,99.99
2016-11-14T04:48:25.321Z,99.99
2016-11-14T04:49:35.721Z,99.99
2016-11-14T04:50:46.039Z,99.99
2016-11-14T04:51:56.355Z,99.99
2016-11-14T04:53:06.677Z,99.99
2016-11-14T04:54:16.999Z,99.99
2016-11-14T04:55:41.887Z,99.99
2016-11-14T04:57:06.871Z,99.99
2016-11-14T04:58:17.205Z,99.99
2016-11-14T04:59:27.526Z,99.99
2016-11-14T05:00:37.846Z,99.99
2016-11-14T05:01:48.163Z,99.99
2016-11-14T05:02:58.479Z,99.99
2016-11-14T05:04:08.798Z,99.99
2016-11-14T05:05:33.684Z,99.99
2016-11-14T05:06:44.004Z,99.99
2016-11-14T05:07:54.358Z,99.99
2016-11-14T05:09:19.243Z,99.99
2016-11-14T05:10:29.562Z,99.99
2016-11-14T05:11:39.884Z,99.99
2016-11-14T05:12:50.205Z,99.99
2016-11-14T05:14:00.524Z,99.99
2016-11-14T05:15:10.843Z,99.99
2016-11-14T05:16:21.159Z,99.99
2016-11-14T05:17:31.480Z,99.99
2016-11-14T05:18:42.005Z,99.99
2016-11-14T05:19:52.836Z,99.99
2016-11-14T05:21:03.156Z,99.99
2016-11-14T05:22:13.471Z,99.99
2016-11-14T05:23:23.788Z,99.99
2016-11-14T05:24:34.310Z,99.99
2016-11-14T05:25:44.633Z,99.99
2016-11-14T05:26:54.951Z,99.99
2016-11-14T05:28:05.268Z,99.99
2016-11-14T05:29:15.588Z,99.99
2016-11-14T05:31:50.993Z,99.99
2016-11-14T05:33:01.308Z,99.99
2016-11-14T05:34:11.640Z,99.99
2016-11-14T05:35:21.961Z,99.99
2016-11-14T05:36:32.964Z,99.99
2016-11-14T05:37:43.284Z,99.99
2016-11-14T05:38:53.604Z,99.99
2016-11-14T05:40:18.489Z,99.99
2016-11-14T05:41:28.811Z,99.99
2016-11-14T05:42:39.131Z,99.99
2016-11-14T05:43:49.448Z,99.99
2016-11-14T05:44:59.802Z,99.99
2016-11-14T05:46:10.158Z,99.99
2016-11-14T05:47:20.473Z,99.99
2016-11-14T05:48:30.792Z,99.99
2016-11-14T05:49:56.164Z,99.99
2016-11-14T05:51:06.481Z,99.99
2016-11-14T05:52:17.009Z,99.99
2016-11-14T05:53:27.332Z,99.99
2016-11-14T05:54:37.660Z,99.99
2016-11-14T05:55:48.012Z,99.99
2016-11-14T05:56:58.541Z,99.99
2016-11-14T05:58:09.453Z,99.99
2016-11-14T05:59:19.889Z,99.99
2016-11-14T06:00:30.321Z,99.99
2016-11-14T06:01:40.759Z,99.99
2016-11-14T06:02:51.400Z,99.99
2016-11-14T06:04:01.848Z,99.99
2016-11-14T06:05:26.827Z,99.99
2016-11-14T06:06:37.264Z,99.99
2016-11-14T06:07:47.701Z,99.99
2016-11-14T06:08:58.239Z,99.99
2016-11-14T06:10:08.677Z,99.99
2016-11-14T06:11:19.145Z,99.99
2016-11-14T06:12:29.584Z,99.99
2016-11-14T06:13:54.563Z,99.99
2016-11-14T06:15:05.001Z,99.99
2016-11-14T06:16:15.460Z,99.99
2016-11-14T06:17:25.894Z,99.99
2016-11-14T06:18:36.342Z,99.99
2016-11-14T06:21:11.974Z,99.99
2016-11-14T06:22:22.416Z,99.99
2016-11-14T06:23:47.600Z,99.99
2016-11-14T06:24:58.036Z,99.99
2016-11-14T06:27:33.502Z,99.99
2016-11-14T06:28:43.941Z,99.99
2016-11-14T06:29:54.583Z,99.99
2016-11-14T06:31:05.021Z,99.99
2016-11-14T06:32:15.466Z,99.99
2016-11-14T06:33:25.903Z,99.99
2016-11-14T06:34:36.439Z,99.99
2016-11-14T06:35:46.876Z,99.99
2016-11-14T06:36:57.312Z,99.99
2016-11-14T06:38:07.751Z,99.99
2016-11-14T06:39:18.214Z,99.99
2016-11-14T06:40:28.849Z,99.99
2016-11-14T06:41:39.287Z,99.99
2016-11-14T06:42:49.724Z,99.99
2016-11-14T06:44:00.162Z,99.99
2016-11-14T06:45:10.608Z,99.99
2016-11-14T06:46:21.242Z,99.99
2016-11-14T06:47:31.684Z,99.99
2016-11-14T06:48:42.118Z,99.99
2016-11-14T06:49:52.559Z,99.99
2016-11-14T06:51:02.994Z,99.99
2016-11-14T06:52:13.531Z,99.99
2016-11-14T06:53:23.965Z,99.99
2016-11-14T06:54:34.408Z,99.99
2016-11-14T06:55:44.844Z,99.99
2016-11-14T06:56:55.281Z,99.99
2016-11-14T06:58:05.818Z,99.99
2016-11-14T06:59:16.252Z,99.99
2016-11-14T07:00:26.685Z,99.99
2016-11-14T07:01:37.120Z,99.99
2016-11-14T07:02:47.556Z,99.99
2016-11-14T07:03:58.096Z,99.99
2016-11-14T07:05:08.532Z,99.99
2016-11-14T07:06:18.975Z,99.99
2016-11-14T07:07:29.413Z,99.99
2016-11-14T07:08:40.332Z,99.99
2016-11-14T07:09:50.871Z,99.99
2016-11-14T07:11:01.304Z,99.99
2016-11-14T07:12:11.740Z,99.99
2016-11-14T07:13:22.180Z,99.99
2016-11-14T07:14:32.618Z,99.99
2016-11-14T07:15:43.255Z,99.99
2016-11-14T07:16:53.702Z,99.99
2016-11-14T07:18:04.137Z,99.99
2016-11-14T07:19:14.606Z,99.99
2016-11-14T07:20:25.039Z,99.99
2016-11-14T07:21:36.071Z,99.99
2016-11-14T07:22:46.506Z,99.99
2016-11-14T07:23:56.951Z,99.99
2016-11-14T07:25:07.386Z,99.99
2016-11-14T07:26:17.857Z,99.99
2016-11-14T07:27:28.388Z,99.99
2016-11-14T07:28:38.972Z,99.99
2016-11-14T07:29:49.499Z,99.99
2016-11-14T07:31:00.036Z,99.99
2016-11-14T07:32:10.567Z,99.99
2016-11-14T07:33:21.296Z,99.99
2016-11-14T07:34:31.825Z,99.99
2016-11-14T07:35:42.351Z,99.99
2016-11-14T07:36:52.881Z,99.99
2016-11-14T07:38:03.870Z,99.99
2016-11-14T07:39:14.485Z,99.99
2016-11-14T07:41:35.306Z,99.99
2016-11-14T07:42:45.715Z,99.99
2016-11-14T07:43:56.131Z,99.99
2016-11-14T07:45:06.645Z,99.99
2016-11-14T07:47:42.025Z,99.99
2016-11-14T07:48:52.434Z,99.99
2016-11-14T07:50:02.843Z,99.99
2016-11-14T07:51:13.270Z,99.99
2016-11-14T07:52:23.675Z,99.99
2016-11-14T07:53:34.086Z,99.99
2016-11-14T07:54:44.496Z,99.99
2016-11-14T07:55:54.981Z,99.99
2016-11-14T07:57:06.226Z,99.99
2016-11-14T07:58:16.787Z,99.99
2016-11-14T07:59:41.747Z,99.99
2016-11-14T08:01:06.904Z,99.99
2016-11-14T08:02:17.313Z,99.99
2016-11-14T08:03:27.716Z,99.99
2016-11-14T08:04:38.124Z,99.99
2016-11-14T08:05:48.531Z,99.99
2016-11-14T08:06:58.942Z,99.99
2016-11-14T08:08:09.359Z,99.99
2016-11-14T08:09:34.318Z,99.99
2016-11-14T08:10:44.726Z,99.99
2016-11-14T08:11:55.136Z,99.99
2016-11-14T08:13:05.742Z,99.99
2016-11-14T08:14:16.157Z,99.99
2016-11-14T08:15:26.563Z,99.99
2016-11-14T08:16:36.971Z,99.99
2016-11-14T08:17:47.581Z,99.99
2016-11-14T08:19:12.540Z,99.99
2016-11-14T08:20:22.956Z,99.99
2016-11-14T08:21:33.363Z,99.99
2016-11-14T08:22:43.772Z,99.99
2016-11-14T08:23:54.320Z,99.99
2016-11-14T08:25:04.738Z,99.99
2016-11-14T08:26:15.633Z,99.99
2016-11-14T08:27:26.039Z,99.99
2016-11-14T08:28:36.447Z,99.99
2016-11-14T08:30:01.405Z,99.99
2016-11-14T08:31:11.810Z,99.99
2016-11-14T08:32:22.226Z,99.99
2016-11-14T08:33:32.637Z,99.99
2016-11-14T08:34:43.043Z,99.99
2016-11-14T08:35:53.452Z,99.99
2016-11-14T08:37:04.830Z,99.99
2016-11-14T08:38:15.237Z,99.99
2016-11-14T08:39:25.750Z,99.99
2016-11-14T08:40:36.156Z,99.99
2016-11-14T08:41:46.564Z,99.99
2016-11-14T08:42:57.013Z,99.99
2016-11-14T08:44:07.422Z,99.99
2016-11-14T08:45:18.007Z,99.99
2016-11-14T08:46:28.538Z,99.99
2016-11-14T08:47:39.097Z,99.99
2016-11-14T08:48:49.624Z,99.99
2016-11-14T08:50:00.159Z,99.99
2016-11-14T08:51:10.687Z,99.99
2016-11-14T08:52:21.253Z,99.99
2016-11-14T08:53:31.789Z,99.99
2016-11-14T08:54:42.315Z,99.99
2016-11-14T08:55:52.801Z,99.99
2016-11-14T08:57:03.336Z,99.99
2016-11-14T08:58:13.776Z,99.87
2016-11-14T08:59:24.206Z,99.99
2016-11-14T09:00:34.642Z,99.99
2016-11-14T09:01:45.077Z,99.99
2016-11-14T09:02:55.510Z,99.99
2016-11-14T09:04:05.950Z,99.99
2016-11-14T09:05:16.389Z,99.99
2016-11-14T09:06:26.827Z,99.99
2016-11-14T09:07:37.266Z,99.99
2016-11-14T09:08:47.799Z,99.97
2016-11-14T09:09:58.234Z,99.99
2016-11-14T09:11:08.667Z,99.99
2016-11-14T09:12:19.101Z,99.68
2016-11-14T09:13:29.539Z,99.78
2016-11-14T09:14:40.070Z,99.99
2016-11-14T09:15:50.506Z,99.83
2016-11-14T09:17:00.946Z,99.87
2016-11-14T09:18:11.380Z,99.83
2016-11-14T09:19:21.823Z,99.44
2016-11-14T09:20:32.241Z,99.2
2016-11-14T09:21:42.558Z,99.35
2016-11-14T09:22:52.874Z,99.15
2016-11-14T09:24:03.200Z,99.25
2016-11-14T09:25:13.514Z,99.06
2016-11-14T09:26:24.313Z,99.1
2016-11-14T09:27:34.632Z,99.99
2016-11-14T09:28:44.946Z,99.25
2016-11-14T09:29:55.266Z,99.35
2016-11-14T09:31:05.591Z,98.77
2016-11-14T09:32:15.909Z,98.96
2016-11-14T09:33:26.227Z,99.44
2016-11-14T09:34:36.547Z,99.15
2016-11-14T09:35:46.864Z,99.15
2016-11-14T09:36:57.179Z,99.44
2016-11-14T09:38:07.700Z,98.96
2016-11-14T09:39:18.052Z,98.77
2016-11-14T09:40:28.871Z,98.29
2016-11-14T09:41:39.283Z,98.48
2016-11-14T09:42:49.699Z,98.19
2016-11-14T09:44:00.110Z,97.91
2016-11-14T09:45:10.543Z,98.29
2016-11-14T09:46:20.951Z,98.58
2016-11-14T09:47:31.366Z,98.48
2016-11-14T09:48:41.776Z,97.62
2016-11-14T09:49:52.425Z,98
2016-11-14T09:51:02.835Z,97.91
2016-11-14T09:52:13.249Z,97.81
2016-11-14T09:53:23.661Z,97.81
2016-11-14T09:55:59.034Z,97.62
2016-11-14T09:57:09.444Z,97.14
2016-11-14T09:58:19.866Z,97.04
2016-11-14T09:59:30.276Z,97.33
2016-11-14T10:00:55.238Z,97.14
2016-11-14T10:02:05.648Z,97.14
2016-11-14T10:03:16.057Z,96.47
2016-11-14T10:04:26.466Z,96.08
2016-11-14T10:05:37.075Z,96.56
2016-11-14T10:06:47.487Z,95.89
2016-11-14T10:07:57.898Z,96.08
2016-11-14T10:09:08.792Z,95.6
2016-11-14T10:10:19.201Z,96.37
2016-11-14T10:11:29.607Z,96.47
2016-11-14T10:12:40.525Z,96.27
2016-11-14T10:13:50.933Z,96.75
2016-11-14T10:15:01.346Z,95.79
2016-11-14T10:16:11.763Z,96.47
2016-11-14T10:17:22.176Z,97.14
2016-11-14T10:18:32.584Z,96.75
2016-11-14T10:19:42.996Z,96.85
2016-11-14T10:20:53.409Z,97.42
2016-11-14T10:22:03.822Z,96.85
2016-11-14T10:23:14.429Z,96.94
2016-11-14T10:24:24.837Z,97.04
2016-11-14T10:25:35.724Z,96.61
2016-11-14T10:26:46.131Z,97.19
2016-11-14T10:28:11.097Z,96.8
2016-11-14T10:29:21.707Z,97.19
2016-11-14T10:30:32.184Z,96.61
2016-11-14T10:31:42.593Z,96.22
2016-11-14T10:32:53.007Z,95.75
2016-11-14T10:34:03.617Z,95.84
2016-11-14T10:35:14.028Z,95.65
2016-11-14T10:36:24.438Z,95.75
2016-11-14T10:37:34.853Z,95.65
2016-11-14T10:38:45.266Z,95.84
2016-11-14T10:39:55.675Z,95.6
2016-11-14T10:41:06.083Z,94.88
2016-11-14T10:42:16.494Z,94.4
2016-11-14T10:43:26.904Z,94.83
2016-11-14T10:44:37.315Z,94.64
2016-11-14T10:45:47.732Z,94.25
2016-11-14T10:46:58.142Z,93.38
2016-11-14T10:48:08.552Z,94.06
2016-11-14T10:49:18.989Z,95.21
2016-11-14T10:50:29.395Z,94.25
2016-11-14T10:51:39.912Z,94.35
2016-11-14T10:52:50.330Z,93.48
2016-11-14T10:54:00.741Z,92.91
2016-11-14T10:55:11.155Z,92.81
2016-11-14T10:56:21.564Z,93.68
2016-11-14T10:57:32.176Z,93.82
2016-11-14T10:58:42.584Z,92.13
2016-11-14T10:59:53.022Z,92.52
2016-11-14T11:01:03.909Z,92.33
2016-11-14T11:02:14.318Z,91.99
2016-11-14T11:03:39.272Z,92.47
2016-11-14T11:05:04.228Z,92.28
2016-11-14T11:06:14.644Z,92.08
2016-11-14T11:07:25.045Z,92.28
2016-11-14T11:08:35.804Z,92.71
2016-11-14T11:09:46.207Z,92.52
2016-11-14T11:10:57.134Z,91.99
2016-11-14T11:12:07.449Z,91.85
2016-11-14T11:13:17.770Z,91.56
2016-11-14T11:14:28.222Z,92.04
2016-11-14T11:15:38.537Z,92.52
2016-11-14T11:17:03.420Z,92.33
2016-11-14T11:18:13.738Z,92.04
2016-11-14T11:19:24.055Z,92.04
2016-11-14T11:20:34.578Z,92.33
2016-11-14T11:21:44.896Z,92.61
2016-11-14T11:22:55.210Z,92.28
2016-11-14T11:24:05.530Z,92.38
2016-11-14T11:25:15.949Z,91.7
2016-11-14T11:26:26.265Z,91.17
2016-11-14T11:27:36.580Z,91.36
2016-11-14T11:28:46.907Z,91.66
2016-11-14T11:29:57.233Z,91.51
2016-11-14T11:31:07.553Z,91.85
2016-11-14T11:32:17.872Z,91.8
2016-11-14T11:33:28.224Z,91.22
2016-11-14T11:34:38.657Z,91.56
2016-11-14T11:35:49.094Z,91.03
2016-11-14T11:37:14.276Z,90.55
2016-11-14T11:38:24.705Z,90.64
2016-11-14T11:39:49.685Z,90.64
2016-11-14T11:41:14.865Z,89.78
2016-11-14T11:42:25.327Z,89.97
2016-11-14T11:43:35.758Z,89.1
2016-11-14T11:44:46.195Z,89.68
2016-11-14T11:45:56.628Z,89.58
2016-11-14T11:47:07.060Z,89.87
2016-11-14T11:48:17.495Z,90.26
2016-11-14T11:49:27.966Z,89.97
2016-11-14T11:50:38.407Z,89.43
2016-11-14T11:51:48.840Z,89.24
2016-11-14T11:52:59.276Z,89.43
2016-11-14T11:54:09.711Z,89.63
2016-11-14T11:55:20.647Z,89.63
2016-11-14T11:56:31.079Z,89.15
2016-11-14T11:57:56.056Z,89.34
2016-11-14T11:59:06.591Z,89.05
2016-11-14T12:00:17.037Z,89.19
2016-11-14T12:01:42.022Z,87.46
2016-11-14T12:02:52.473Z,86.78
2016-11-14T12:04:02.911Z,86.69
2016-11-14T12:05:13.348Z,86.78
2016-11-14T12:06:23.821Z,86.78
2016-11-14T12:07:34.149Z,86.78
2016-11-14T12:08:44.468Z,86.69
2016-11-14T12:09:54.786Z,86.98
2016-11-14T12:11:05.103Z,86.49
2016-11-14T12:12:15.416Z,86.78
2016-11-14T12:13:25.729Z,86.69
2016-11-14T12:14:36.250Z,85.91
2016-11-14T12:15:46.599Z,86.4
2016-11-14T12:18:21.805Z,86.11
2016-11-14T12:19:32.130Z,86.01
2016-11-14T12:20:42.447Z,86.01
2016-11-14T12:21:52.767Z,86.21
2016-11-14T12:23:03.087Z,85.72
2016-11-14T12:24:13.401Z,86.3
2016-11-14T12:25:24.568Z,85.43
2016-11-14T12:26:34.889Z,86.21
2016-11-14T12:27:45.206Z,85.82
2016-11-14T12:28:55.544Z,84.95
2016-11-14T12:30:05.861Z,85.05
2016-11-14T12:31:16.185Z,84.95
2016-11-14T12:32:26.501Z,85.53
2016-11-14T12:33:36.817Z,85.34
2016-11-14T12:34:47.131Z,84.95
2016-11-14T12:35:57.452Z,84.86
2016-11-14T12:37:07.972Z,84.76
2016-11-14T12:39:58.230Z,85.24
2016-11-14T12:41:09.507Z,84.95
2016-11-14T12:42:19.826Z,85.05
2016-11-14T12:43:44.711Z,84.95
2016-11-14T12:44:55.029Z,85.05
2016-11-14T12:46:05.348Z,85.43
2016-11-14T12:47:15.667Z,85.14
2016-11-14T12:48:26.188Z,84.76
2016-11-14T12:49:36.505Z,84.42
2016-11-14T12:50:46.820Z,84.03
2016-11-14T12:52:40.841Z,83.55
2016-11-14T12:53:51.158Z,83.36
2016-11-14T12:55:01.474Z,83.26
2016-11-14T12:56:11.795Z,83.16
2016-11-14T12:57:22.115Z,83.55
2016-11-14T12:58:32.668Z,82.97
2016-11-14T12:59:42.982Z,82.97
2016-11-14T13:00:53.302Z,82.87
2016-11-14T13:02:03.620Z,82.97
2016-11-14T13:03:13.940Z,83.78
2016-11-14T13:04:24.255Z,83.36
2016-11-14T13:05:49.142Z,83.3
2016-11-14T13:06:59.469Z,82.62
2016-11-14T13:08:10.265Z,83.3
2016-11-14T13:09:20.581Z,82.82
2016-11-14T13:11:00.036Z,83.01
2016-11-14T13:12:10.391Z,83.59
2016-11-14T13:13:20.815Z,83.5
2016-11-14T13:14:31.136Z,84.07
2016-11-14T13:15:41.449Z,84.27
2016-11-14T13:17:06.335Z,85.23
2016-11-14T13:18:16.652Z,84.22
2016-11-14T13:19:27.169Z,85.19
2016-11-14T13:20:37.487Z,85.47
2016-11-14T13:21:47.809Z,85.96
2016-11-14T13:22:58.128Z,86.63
2016-11-14T13:24:08.646Z,86.73
2016-11-14T13:25:33.557Z,86.35
2016-11-14T13:26:44.467Z,86.44
2016-11-14T13:27:54.875Z,86.92
2016-11-14T13:29:05.314Z,87.3
2016-11-14T13:30:15.723Z,87.3
2016-11-14T13:31:26.131Z,87.5
2016-11-14T13:32:36.542Z,87.6
2016-11-14T13:33:46.950Z,87.4
2016-11-14T13:34:57.355Z,88.08
2016-11-14T13:36:08.246Z,88.65
2016-11-14T13:37:18.650Z,88.81
2016-11-14T13:38:29.057Z,88.85
2016-11-14T13:39:39.470Z,89.33
2016-11-14T13:40:49.982Z,89.43
2016-11-14T13:42:00.387Z,89.23
2016-11-14T13:43:10.801Z,88.75
2016-11-14T13:44:21.209Z,87.98
2016-11-14T13:45:31.612Z,89.09
2016-11-14T13:46:42.122Z,87.45
2016-11-14T13:47:52.530Z,85.81
2016-11-14T13:49:03.423Z,85.71
2016-11-14T13:50:13.845Z,86.1
2016-11-14T13:51:24.260Z,86.39
2016-11-14T13:52:35.352Z,86.68
2016-11-14T13:53:45.787Z,86.68
2016-11-14T13:54:56.686Z,86.39
2016-11-14T13:56:07.131Z,86.48
2016-11-14T13:57:17.548Z,85.13
2016-11-14T13:58:27.960Z,85.61
2016-11-14T13:59:38.380Z,86.29
2016-11-14T14:00:48.823Z,86.68
2016-11-14T14:01:59.228Z,86.44
2016-11-14T14:03:09.667Z,86.25
2016-11-14T14:04:35.109Z,86.96
2016-11-14T14:05:45.515Z,87.06
2016-11-14T14:06:55.967Z,86.96
2016-11-14T14:08:06.370Z,86.87
2016-11-14T14:09:16.976Z,87.02
2016-11-14T14:10:27.349Z,87.06
2016-11-14T14:11:52.241Z,87.4
2016-11-14T14:13:17.124Z,87.35
2016-11-14T14:14:27.440Z,87.35
2016-11-14T14:15:52.328Z,87.12
2016-11-14T14:17:02.644Z,88.08
2016-11-14T14:18:12.971Z,88.27
2016-11-14T14:19:23.295Z,88.85
2016-11-14T14:20:48.177Z,89.43
2016-11-14T14:23:23.386Z,89.91
2016-11-14T14:24:33.709Z,90.48
2016-11-14T14:25:44.031Z,90.68
2016-11-14T14:27:08.918Z,90.44
2016-11-14T14:28:19.237Z,90.88
2016-11-14T14:29:29.558Z,91.99
2016-11-14T14:30:39.900Z,91.5
2016-11-14T14:31:50.219Z,91.83
2016-11-14T14:33:00.539Z,91.99
2016-11-14T14:34:25.428Z,91.99
2016-11-14T14:35:35.757Z,91.99
2016-11-14T14:36:46.077Z,92.37
2016-11-14T14:39:21.283Z,93.04
2016-11-14T14:40:31.804Z,92.85
2016-11-14T14:41:42.125Z,93.24
2016-11-14T14:44:17.327Z,93.43
2016-11-14T14:45:27.653Z,93.72
2016-11-14T14:46:38.169Z,94.59
2016-11-14T14:48:03.058Z,94.01
2016-11-14T14:49:13.376Z,94.34
2016-11-14T14:50:23.697Z,94.54
2016-11-14T14:51:34.217Z,93.86
2016-11-14T14:52:44.538Z,93.09
2016-11-14T14:53:54.855Z,92.99
2016-11-14T14:55:05.172Z,91.83
2016-11-14T14:56:15.490Z,90.34
2016-11-14T14:57:25.909Z,90.53
2016-11-14T14:58:36.230Z,90.39
2016-11-14T14:59:46.545Z,90.78
2016-11-14T15:00:56.866Z,90.82
2016-11-14T15:02:07.191Z,90.72
2016-11-14T15:03:17.505Z,91.45
2016-11-14T15:04:27.820Z,91.55
2016-11-14T15:05:38.159Z,92.61
2016-11-14T15:08:13.363Z,92.99
2016-11-14T15:09:23.891Z,93.76
2016-11-14T15:10:34.204Z,93.66
2016-11-14T15:11:59.094Z,93.71
2016-11-14T15:13:09.409Z,94.1
2016-11-14T15:14:19.934Z,93.62
2016-11-14T15:15:30.253Z,94.44
2016-11-14T15:16:40.575Z,94.34
2016-11-14T15:17:50.894Z,94.34
2016-11-14T15:19:01.216Z,93.38
2016-11-14T15:20:11.563Z,93.57
2016-11-14T15:21:21.883Z,94.54
2016-11-14T15:22:32.202Z,94.63
2016-11-14T15:23:42.516Z,95.5
2016-11-14T15:24:53.036Z,95.31
2016-11-14T15:26:03.360Z,95.89
2016-11-14T15:27:13.677Z,95.79
2016-11-14T15:28:23.997Z,95.79
2016-11-14T15:29:34.349Z,95.79
2016-11-14T15:30:59.432Z,96.61
2016-11-14T15:32:09.749Z,97.04
2016-11-14T15:33:20.071Z,97.42
2016-11-14T15:34:30.866Z,96.75
2016-11-14T15:35:41.186Z,97.62
2016-11-14T15:36:51.703Z,96.56
2016-11-14T15:38:02.022Z,96.08
2016-11-14T15:39:12.367Z,96.37
2016-11-14T15:40:22.724Z,96.75
2016-11-14T15:41:33.131Z,95.98
2016-11-14T15:42:43.737Z,97.24
2016-11-14T15:43:54.641Z,96.46